aviador You're here:

K2DP Decoded Metar

STUMPY POINT in NC, USA
Report Time2018-05-28 03:56:00
UTC Time2018-05-28 05:01:43
Flight Rules vfr VFR
Wind220° at 06 kt
W.Rank220° ranks 2
Current wind is below 220° avg. (7.8)
Visibility9999 m
Phenomena:N/A
Clouds:N/A
Expected CloudBase > 800 ft AGL from Temp-Dew spread
CeilingNone
Temp23°C (ISA +8)
Dew Point21°C (89% RH)
QNH1018 hPa
Density Alt1,102 ft
Elevation10 ft
Report Wrong Elevation
Raw Report
K2DP 280356Z AUTO 22006KT 10SM CLR 23/21 A3006 RMK AO2 SLPNO
T02300214 $=

Extra information for K2DP:More info

Metar Taf Metar & Taf Last 4 Metars F.Rules Stats Wind Profile Meteogram Temp Stats Airport Information Weather charts Add Link Nearby VenuesMetar ALERT Operation Metar Decoded Social comments

AIRNAV info for K2DP